sensor_id;sensor_type;location;lat;lon;timestamp;P1;durP1;ratioP1;P2;durP2;ratioP2
60436;SDS011;46289;51.992;4.498;2023-03-14T00:01:12;17.35;;;3.88;;
60436;SDS011;46289;51.992;4.498;2023-03-14T00:03:21;20.88;;;4.72;;
60436;SDS011;46289;51.992;4.498;2023-03-14T00:05:33;15.82;;;4.97;;
60436;SDS011;46289;51.992;4.498;2023-03-14T00:07:39;19.70;;;3.95;;
60436;SDS011;46289;51.992;4.498;2023-03-14T00:09:56;16.88;;;4.15;;
60436;SDS011;46289;51.992;4.498;2023-03-14T00:12:06;12.85;;;3.42;;
60436;SDS011;46289;51.992;4.498;2023-03-14T00:14:18;15.50;;;3.08;;
60436;SDS011;46289;51.992;4.498;2023-03-14T00:16:30;17.65;;;3.58;;
60436;SDS011;46289;51.992;4.498;2023-03-14T00:18:36;12.98;;;3.70;;
60436;SDS011;46289;51.992;4.498;2023-03-14T00:20:45;19.92;;;3.85;;
60436;SDS011;46289;51.992;4.498;2023-03-14T00:22:52;13.43;;;4.07;;
60436;SDS011;46289;51.992;4.498;2023-03-14T00:25:09;25.08;;;3.80;;
60436;SDS011;46289;51.992;4.498;2023-03-14T00:27:20;19.58;;;4.05;;
60436;SDS011;46289;51.992;4.498;2023-03-14T00:29:26;19.45;;;3.80;;
60436;SDS011;46289;51.992;4.498;2023-03-14T00:31:31;18.85;;;3.63;;
60436;SDS011;46289;51.992;4.498;2023-03-14T00:33:37;12.60;;;3.25;;
60436;SDS011;46289;51.992;4.498;2023-03-14T00:35:51;17.85;;;4.65;;
60436;SDS011;46289;51.992;4.498;2023-03-14T00:38:09;19.08;;;3.50;;
60436;SDS011;46289;51.992;4.498;2023-03-14T00:40:16;18.37;;;3.97;;
60436;SDS011;46289;51.992;4.498;2023-03-14T00:42:24;21.00;;;4.57;;
60436;SDS011;46289;51.992;4.498;2023-03-14T00:44:40;18.25;;;4.75;;
60436;SDS011;46289;51.992;4.498;2023-03-14T00:46:48;23.48;;;5.00;;
60436;SDS011;46289;51.992;4.498;2023-03-14T00:48:54;19.00;;;4.45;;
60436;SDS011;46289;51.992;4.498;2023-03-14T00:50:59;25.15;;;4.95;;
60436;SDS011;46289;51.992;4.498;2023-03-14T00:53:07;11.13;;;4.35;;
60436;SDS011;46289;51.992;4.498;2023-03-14T00:55:14;18.42;;;3.97;;
60436;SDS011;46289;51.992;4.498;2023-03-14T00:57:34;17.05;;;4.53;;
60436;SDS011;46289;51.992;4.498;2023-03-14T00:59:42;15.82;;;4.13;;
60436;SDS011;46289;51.992;4.498;2023-03-14T01:01:49;19.92;;;4.18;;
60436;SDS011;46289;51.992;4.498;2023-03-14T01:04:05;28.70;;;4.72;;
60436;SDS011;46289;51.992;4.498;2023-03-14T01:06:20;14.63;;;3.88;;
60436;SDS011;46289;51.992;4.498;2023-03-14T01:08:27;13.38;;;3.72;;
60436;SDS011;46289;51.992;4.498;2023-03-14T01:10:31;15.68;;;3.10;;
60436;SDS011;46289;51.992;4.498;2023-03-14T01:12:47;13.32;;;3.15;;
60436;SDS011;46289;51.992;4.498;2023-03-14T01:14:55;19.70;;;5.50;;
60436;SDS011;46289;51.992;4.498;2023-03-14T01:17:00;22.08;;;4.60;;
60436;SDS011;46289;51.992;4.498;2023-03-14T01:19:06;12.30;;;3.10;;
60436;SDS011;46289;51.992;4.498;2023-03-14T01:21:15;14.15;;;4.10;;
60436;SDS011;46289;51.992;4.498;2023-03-14T01:23:26;18.92;;;3.47;;
60436;SDS011;46289;51.992;4.498;2023-03-14T01:25:32;15.98;;;3.15;;
60436;SDS011;46289;51.992;4.498;2023-03-14T01:27:40;15.30;;;4.22;;
60436;SDS011;46289;51.992;4.498;2023-03-14T01:29:47;19.55;;;4.78;;
60436;SDS011;46289;51.992;4.498;2023-03-14T01:31:52;13.85;;;3.42;;
60436;SDS011;46289;51.992;4.498;2023-03-14T01:33:57;15.35;;;4.55;;
60436;SDS011;46289;51.992;4.498;2023-03-14T01:36:05;19.33;;;4.18;;
60436;SDS011;46289;51.992;4.498;2023-03-14T01:38:14;23.45;;;4.63;;
60436;SDS011;46289;51.992;4.498;2023-03-14T01:40:20;13.32;;;3.22;;
60436;SDS011;46289;51.992;4.498;2023-03-14T01:42:28;14.88;;;3.50;;
60436;SDS011;46289;51.992;4.498;2023-03-14T01:44:53;13.15;;;3.97;;
60436;SDS011;46289;51.992;4.498;2023-03-14T01:47:01;17.75;;;4.15;;
60436;SDS011;46289;51.992;4.498;2023-03-14T01:49:11;11.35;;;3.67;;
60436;SDS011;46289;51.992;4.498;2023-03-14T01:51:22;12.35;;;3.05;;
60436;SDS011;46289;51.992;4.498;2023-03-14T01:53:33;22.35;;;4.03;;
60436;SDS011;46289;51.992;4.498;2023-03-14T01:55:42;17.20;;;3.30;;
60436;SDS011;46289;51.992;4.498;2023-03-14T01:57:50;14.02;;;3.10;;
60436;SDS011;46289;51.992;4.498;2023-03-14T02:00:03;15.90;;;4.05;;
60436;SDS011;46289;51.992;4.498;2023-03-14T02:02:16;10.82;;;3.55;;
60436;SDS011;46289;51.992;4.498;2023-03-14T02:04:21;14.55;;;3.10;;
60436;SDS011;46289;51.992;4.498;2023-03-14T02:06:37;8.88;;;2.90;;
60436;SDS011;46289;51.992;4.498;2023-03-14T02:08:50;11.80;;;3.20;;
60436;SDS011;46289;51.992;4.498;2023-03-14T02:10:58;17.85;;;3.35;;
60436;SDS011;46289;51.992;4.498;2023-03-14T02:13:04;12.82;;;2.78;;
60436;SDS011;46289;51.992;4.498;2023-03-14T02:15:21;12.43;;;2.70;;
60436;SDS011;46289;51.992;4.498;2023-03-14T02:17:30;12.98;;;3.47;;
60436;SDS011;46289;51.992;4.498;2023-03-14T02:19:39;12.20;;;2.70;;
60436;SDS011;46289;51.992;4.498;2023-03-14T02:21:57;12.60;;;3.33;;
60436;SDS011;46289;51.992;4.498;2023-03-14T02:24:13;15.48;;;3.20;;
60436;SDS011;46289;51.992;4.498;2023-03-14T02:26:31;11.18;;;3.30;;
60436;SDS011;46289;51.992;4.498;2023-03-14T02:28:50;15.68;;;3.17;;
60436;SDS011;46289;51.992;4.498;2023-03-14T02:30:58;13.00;;;3.10;;
60436;SDS011;46289;51.992;4.498;2023-03-14T02:33:06;19.38;;;5.03;;
60436;SDS011;46289;51.992;4.498;2023-03-14T02:35:15;6.68;;;2.35;;
60436;SDS011;46289;51.992;4.498;2023-03-14T02:37:25;13.40;;;2.97;;
60436;SDS011;46289;51.992;4.498;2023-03-14T02:39:35;9.63;;;2.60;;
60436;SDS011;46289;51.992;4.498;2023-03-14T02:41:50;9.98;;;2.95;;
60436;SDS011;46289;51.992;4.498;2023-03-14T02:43:58;16.67;;;3.45;;
60436;SDS011;46289;51.992;4.498;2023-03-14T02:46:03;10.68;;;2.50;;
60436;SDS011;46289;51.992;4.498;2023-03-14T02:48:17;19.10;;;3.45;;
60436;SDS011;46289;51.992;4.498;2023-03-14T02:50:26;9.77;;;3.03;;
60436;SDS011;46289;51.992;4.498;2023-03-14T02:52:36;12.88;;;3.45;;
60436;SDS011;46289;51.992;4.498;2023-03-14T02:54:46;8.52;;;2.78;;
60436;SDS011;46289;51.992;4.498;2023-03-14T02:56:55;16.98;;;3.30;;
60436;SDS011;46289;51.992;4.498;2023-03-14T02:59:06;13.15;;;3.40;;
60436;SDS011;46289;51.992;4.498;2023-03-14T03:01:13;17.13;;;3.33;;
60436;SDS011;46289;51.992;4.498;2023-03-14T03:03:20;13.55;;;2.90;;
60436;SDS011;46289;51.992;4.498;2023-03-14T03:05:25;16.80;;;3.35;;
60436;SDS011;46289;51.992;4.498;2023-03-14T03:07:30;11.68;;;2.83;;
60436;SDS011;46289;51.992;4.498;2023-03-14T03:09:35;15.73;;;3.40;;
60436;SDS011;46289;51.992;4.498;2023-03-14T03:11:40;15.32;;;3.15;;
60436;SDS011;46289;51.992;4.498;2023-03-14T03:13:46;12.77;;;3.92;;
60436;SDS011;46289;51.992;4.498;2023-03-14T03:15:57;14.40;;;3.22;;
60436;SDS011;46289;51.992;4.498;2023-03-14T03:18:02;16.35;;;4.18;;
60436;SDS011;46289;51.992;4.498;2023-03-14T03:20:08;11.82;;;3.15;;
60436;SDS011;46289;51.992;4.498;2023-03-14T03:22:26;13.18;;;3.78;;
60436;SDS011;46289;51.992;4.498;2023-03-14T03:26:44;12.93;;;3.50;;
60436;SDS011;46289;51.992;4.498;2023-03-14T03:28:52;9.75;;;3.05;;
60436;SDS011;46289;51.992;4.498;2023-03-14T03:31:05;9.30;;;2.55;;
60436;SDS011;46289;51.992;4.498;2023-03-14T03:33:11;17.00;;;3.45;;
60436;SDS011;46289;51.992;4.498;2023-03-14T03:35:18;12.73;;;3.10;;
60436;SDS011;46289;51.992;4.498;2023-03-14T03:37:26;15.18;;;3.15;;
60436;SDS011;46289;51.992;4.498;2023-03-14T03:39:31;15.05;;;3.38;;
60436;SDS011;46289;51.992;4.498;2023-03-14T03:41:36;11.55;;;3.08;;
60436;SDS011;46289;51.992;4.498;2023-03-14T03:43:45;11.52;;;3.42;;
60436;SDS011;46289;51.992;4.498;2023-03-14T03:46:05;9.88;;;2.97;;
60436;SDS011;46289;51.992;4.498;2023-03-14T03:48:11;10.88;;;3.10;;
60436;SDS011;46289;51.992;4.498;2023-03-14T03:50:19;12.05;;;3.38;;
60436;SDS011;46289;51.992;4.498;2023-03-14T03:52:26;8.80;;;2.55;;
60436;SDS011;46289;51.992;4.498;2023-03-14T03:54:35;11.60;;;3.05;;
60436;SDS011;46289;51.992;4.498;2023-03-14T03:56:43;9.27;;;2.90;;
60436;SDS011;46289;51.992;4.498;2023-03-14T03:58:48;9.35;;;3.03;;
60436;SDS011;46289;51.992;4.498;2023-03-14T04:00:57;17.20;;;3.95;;
60436;SDS011;46289;51.992;4.498;2023-03-14T04:03:10;12.35;;;3.35;;
60436;SDS011;46289;51.992;4.498;2023-03-14T04:05:18;9.27;;;4.07;;
60436;SDS011;46289;51.992;4.498;2023-03-14T04:07:27;10.95;;;3.15;;
60436;SDS011;46289;51.992;4.498;2023-03-14T04:09:32;12.40;;;3.35;;
60436;SDS011;46289;51.992;4.498;2023-03-14T04:11:37;12.65;;;2.65;;
60436;SDS011;46289;51.992;4.498;2023-03-14T04:13:42;9.40;;;2.63;;
60436;SDS011;46289;51.992;4.498;2023-03-14T04:15:48;11.85;;;3.13;;
60436;SDS011;46289;51.992;4.498;2023-03-14T04:17:56;9.25;;;2.88;;
60436;SDS011;46289;51.992;4.498;2023-03-14T04:20:05;16.60;;;3.20;;
60436;SDS011;46289;51.992;4.498;2023-03-14T04:22:12;9.90;;;3.00;;
60436;SDS011;46289;51.992;4.498;2023-03-14T04:24:18;15.55;;;3.65;;
60436;SDS011;46289;51.992;4.498;2023-03-14T04:26:26;6.85;;;2.15;;
60436;SDS011;46289;51.992;4.498;2023-03-14T04:28:31;11.00;;;3.05;;
60436;SDS011;46289;51.992;4.498;2023-03-14T04:30:40;8.73;;;2.75;;
60436;SDS011;46289;51.992;4.498;2023-03-14T04:32:47;8.32;;;3.13;;
60436;SDS011;46289;51.992;4.498;2023-03-14T04:34:53;14.80;;;3.15;;
60436;SDS011;46289;51.992;4.498;2023-03-14T04:37:02;6.57;;;2.92;;
60436;SDS011;46289;51.992;4.498;2023-03-14T04:39:10;13.98;;;2.95;;
60436;SDS011;46289;51.992;4.498;2023-03-14T04:41:17;9.20;;;2.38;;
60436;SDS011;46289;51.992;4.498;2023-03-14T04:43:26;10.35;;;2.92;;
60436;SDS011;46289;51.992;4.498;2023-03-14T04:45:48;10.23;;;3.50;;
60436;SDS011;46289;51.992;4.498;2023-03-14T04:48:25;8.15;;;2.97;;
60436;SDS011;46289;51.992;4.498;2023-03-14T04:50:48;9.60;;;3.00;;
60436;SDS011;46289;51.992;4.498;2023-03-14T04:53:36;11.65;;;3.10;;
60436;SDS011;46289;51.992;4.498;2023-03-14T04:56:48;15.13;;;3.40;;
60436;SDS011;46289;51.992;4.498;2023-03-14T05:06:19;8.07;;;2.90;;
60436;SDS011;46289;51.992;4.498;2023-03-14T05:30:48;9.63;;;3.80;;
60436;SDS011;46289;51.992;4.498;2023-03-14T05:33:21;8.93;;;3.25;;
60436;SDS011;46289;51.992;4.498;2023-03-14T05:36:43;7.20;;;2.72;;
60436;SDS011;46289;51.992;4.498;2023-03-14T05:40:08;10.43;;;2.30;;
60436;SDS011;46289;51.992;4.498;2023-03-14T05:56:04;7.95;;;1.70;;
60436;SDS011;46289;51.992;4.498;2023-03-14T09:19:25;8.95;;;2.47;;
60436;SDS011;46289;51.992;4.498;2023-03-14T09:22:28;15.50;;;2.63;;
60436;SDS011;46289;51.992;4.498;2023-03-14T09:27:34;12.73;;;2.38;;
60436;SDS011;46289;51.992;4.498;2023-03-14T09:29:56;11.32;;;2.15;;
60436;SDS011;46289;51.992;4.498;2023-03-14T09:32:25;14.73;;;2.70;;
60436;SDS011;46289;51.992;4.498;2023-03-14T09:38:34;19.02;;;4.43;;
60436;SDS011;46289;51.992;4.498;2023-03-14T09:41:27;11.55;;;2.70;;
60436;SDS011;46289;51.992;4.498;2023-03-14T09:44:21;8.38;;;2.30;;
60436;SDS011;46289;51.992;4.498;2023-03-14T09:48:08;13.07;;;3.30;;
60436;SDS011;46289;51.992;4.498;2023-03-14T09:54:21;14.75;;;3.15;;
60436;SDS011;46289;51.992;4.498;2023-03-14T09:57:02;13.65;;;3.80;;
60436;SDS011;46289;51.992;4.498;2023-03-14T09:59:26;14.05;;;3.60;;
60436;SDS011;46289;51.992;4.498;2023-03-14T10:02:17;10.48;;;2.80;;
60436;SDS011;46289;51.992;4.498;2023-03-14T10:04:37;14.80;;;4.03;;
60436;SDS011;46289;51.992;4.498;2023-03-14T10:17:26;10.88;;;2.80;;
60436;SDS011;46289;51.992;4.498;2023-03-14T10:19:57;14.65;;;3.55;;
60436;SDS011;46289;51.992;4.498;2023-03-14T10:22:39;18.73;;;2.92;;
60436;SDS011;46289;51.992;4.498;2023-03-14T10:24:52;20.67;;;3.45;;
60436;SDS011;46289;51.992;4.498;2023-03-14T10:27:17;17.38;;;3.17;;
60436;SDS011;46289;51.992;4.498;2023-03-14T10:29:51;10.90;;;2.60;;
60436;SDS011;46289;51.992;4.498;2023-03-14T10:32:18;15.35;;;3.05;;
60436;SDS011;46289;51.992;4.498;2023-03-14T10:35:03;17.90;;;3.58;;
60436;SDS011;46289;51.992;4.498;2023-03-14T10:37:51;17.73;;;3.60;;
60436;SDS011;46289;51.992;4.498;2023-03-14T10:49:37;12.68;;;3.20;;
60436;SDS011;46289;51.992;4.498;2023-03-14T10:52:23;19.30;;;4.80;;
60436;SDS011;46289;51.992;4.498;2023-03-14T10:55:08;19.85;;;4.30;;
60436;SDS011;46289;51.992;4.498;2023-03-14T10:57:18;15.00;;;3.55;;
60436;SDS011;46289;51.992;4.498;2023-03-14T10:59:29;11.75;;;2.78;;
60436;SDS011;46289;51.992;4.498;2023-03-14T11:01:41;13.32;;;3.00;;
60436;SDS011;46289;51.992;4.498;2023-03-14T11:09:14;15.55;;;4.18;;
60436;SDS011;46289;51.992;4.498;2023-03-14T11:11:59;16.88;;;3.20;;
60436;SDS011;46289;51.992;4.498;2023-03-14T11:14:28;13.30;;;3.50;;
60436;SDS011;46289;51.992;4.498;2023-03-14T11:16:40;12.15;;;2.60;;
60436;SDS011;46289;51.992;4.498;2023-03-14T11:21:28;6.82;;;2.35;;
60436;SDS011;46289;51.992;4.498;2023-03-14T11:23:46;6.95;;;2.28;;
60436;SDS011;46289;51.992;4.498;2023-03-14T11:26:01;12.48;;;3.15;;
60436;SDS011;46289;51.992;4.498;2023-03-14T11:28:17;10.57;;;2.15;;
60436;SDS011;46289;51.992;4.498;2023-03-14T11:30:29;11.48;;;2.78;;
60436;SDS011;46289;51.992;4.498;2023-03-14T11:32:41;13.48;;;2.97;;
60436;SDS011;46289;51.992;4.498;2023-03-14T11:34:50;15.07;;;2.70;;
60436;SDS011;46289;51.992;4.498;2023-03-14T11:37:00;8.90;;;2.83;;
60436;SDS011;46289;51.992;4.498;2023-03-14T11:39:11;12.07;;;2.70;;
60436;SDS011;46289;51.992;4.498;2023-03-14T11:41:22;6.80;;;2.20;;
60436;SDS011;46289;51.992;4.498;2023-03-14T11:43:35;9.52;;;2.97;;
60436;SDS011;46289;51.992;4.498;2023-03-14T11:45:44;12.15;;;3.70;;
60436;SDS011;46289;51.992;4.498;2023-03-14T11:47:52;15.93;;;3.28;;
60436;SDS011;46289;51.992;4.498;2023-03-14T11:50:12;9.15;;;2.40;;
60436;SDS011;46289;51.992;4.498;2023-03-14T11:52:25;12.00;;;3.33;;
60436;SDS011;46289;51.992;4.498;2023-03-14T11:54:38;20.50;;;3.90;;
60436;SDS011;46289;51.992;4.498;2023-03-14T11:56:52;13.15;;;3.20;;
60436;SDS011;46289;51.992;4.498;2023-03-14T11:59:03;11.00;;;3.08;;
60436;SDS011;46289;51.992;4.498;2023-03-14T12:01:10;5.10;;;1.63;;
60436;SDS011;46289;51.992;4.498;2023-03-14T12:03:21;9.55;;;1.85;;
60436;SDS011;46289;51.992;4.498;2023-03-14T12:05:43;10.13;;;3.33;;
60436;SDS011;46289;51.992;4.498;2023-03-14T12:13:00;8.48;;;1.98;;
60436;SDS011;46289;51.992;4.498;2023-03-14T12:15:14;13.95;;;2.22;;
60436;SDS011;46289;51.992;4.498;2023-03-14T12:17:27;7.55;;;2.33;;
60436;SDS011;46289;51.992;4.498;2023-03-14T12:19:39;7.47;;;2.05;;
60436;SDS011;46289;51.992;4.498;2023-03-14T12:21:47;8.25;;;1.98;;
60436;SDS011;46289;51.992;4.498;2023-03-14T12:24:00;12.32;;;2.22;;
60436;SDS011;46289;51.992;4.498;2023-03-14T12:26:21;9.00;;;2.10;;
60436;SDS011;46289;51.992;4.498;2023-03-14T12:28:32;8.35;;;1.88;;
60436;SDS011;46289;51.992;4.498;2023-03-14T12:30:37;5.50;;;2.13;;
60436;SDS011;46289;51.992;4.498;2023-03-14T12:32:48;10.27;;;2.38;;
60436;SDS011;46289;51.992;4.498;2023-03-14T12:35:34;14.13;;;2.08;;
60436;SDS011;46289;51.992;4.498;2023-03-14T12:37:41;12.95;;;2.95;;
60436;SDS011;46289;51.992;4.498;2023-03-14T12:42:35;8.90;;;2.83;;
60436;SDS011;46289;51.992;4.498;2023-03-14T12:44:47;9.40;;;2.25;;
60436;SDS011;46289;51.992;4.498;2023-03-14T12:46:53;12.68;;;2.88;;
60436;SDS011;46289;51.992;4.498;2023-03-14T12:49:03;7.22;;;2.10;;
60436;SDS011;46289;51.992;4.498;2023-03-14T12:51:12;13.55;;;2.65;;
60436;SDS011;46289;51.992;4.498;2023-03-14T12:56:15;6.45;;;2.28;;
60436;SDS011;46289;51.992;4.498;2023-03-14T12:58:39;5.65;;;1.40;;
60436;SDS011;46289;51.992;4.498;2023-03-14T13:00:51;6.93;;;2.08;;
60436;SDS011;46289;51.992;4.498;2023-03-14T13:03:00;9.18;;;2.15;;
60436;SDS011;46289;51.992;4.498;2023-03-14T13:05:17;13.55;;;2.05;;
60436;SDS011;46289;51.992;4.498;2023-03-14T13:08:01;7.47;;;1.73;;
60436;SDS011;46289;51.992;4.498;2023-03-14T13:10:22;21.27;;;3.05;;
60436;SDS011;46289;51.992;4.498;2023-03-14T13:12:38;6.78;;;2.10;;
60436;SDS011;46289;51.992;4.498;2023-03-14T13:14:52;5.30;;;2.17;;
60436;SDS011;46289;51.992;4.498;2023-03-14T13:17:01;11.93;;;2.53;;
60436;SDS011;46289;51.992;4.498;2023-03-14T13:19:26;8.50;;;1.90;;
60436;SDS011;46289;51.992;4.498;2023-03-14T13:21:34;11.20;;;2.80;;
60436;SDS011;46289;51.992;4.498;2023-03-14T13:23:40;7.13;;;1.92;;
60436;SDS011;46289;51.992;4.498;2023-03-14T13:26:00;7.88;;;1.80;;
60436;SDS011;46289;51.992;4.498;2023-03-14T13:28:11;8.73;;;2.20;;
60436;SDS011;46289;51.992;4.498;2023-03-14T13:30:20;5.85;;;1.50;;
60436;SDS011;46289;51.992;4.498;2023-03-14T13:32:30;8.38;;;2.47;;
60436;SDS011;46289;51.992;4.498;2023-03-14T13:34:38;10.75;;;2.08;;
60436;SDS011;46289;51.992;4.498;2023-03-14T13:36:44;7.82;;;1.85;;
60436;SDS011;46289;51.992;4.498;2023-03-14T13:38:58;13.50;;;2.85;;
60436;SDS011;46289;51.992;4.498;2023-03-14T13:41:06;9.43;;;2.05;;
60436;SDS011;46289;51.992;4.498;2023-03-14T13:43:18;9.75;;;2.50;;
60436;SDS011;46289;51.992;4.498;2023-03-14T13:47:32;6.40;;;1.80;;
60436;SDS011;46289;51.992;4.498;2023-03-14T13:49:37;7.22;;;1.92;;
60436;SDS011;46289;51.992;4.498;2023-03-14T13:51:42;17.30;;;2.92;;
60436;SDS011;46289;51.992;4.498;2023-03-14T13:53:48;11.25;;;2.58;;
60436;SDS011;46289;51.992;4.498;2023-03-14T13:55:55;7.57;;;2.28;;
60436;SDS011;46289;51.992;4.498;2023-03-14T13:58:00;10.68;;;2.50;;
60436;SDS011;46289;51.992;4.498;2023-03-14T14:00:16;16.10;;;2.83;;
60436;SDS011;46289;51.992;4.498;2023-03-14T14:02:23;14.07;;;2.60;;
60436;SDS011;46289;51.992;4.498;2023-03-14T14:04:32;7.30;;;2.10;;
60436;SDS011;46289;51.992;4.498;2023-03-14T14:06:44;11.27;;;2.95;;
60436;SDS011;46289;51.992;4.498;2023-03-14T14:08:53;20.92;;;2.42;;
60436;SDS011;46289;51.992;4.498;2023-03-14T14:10:59;11.23;;;2.45;;
60436;SDS011;46289;51.992;4.498;2023-03-14T14:13:08;13.30;;;2.33;;
60436;SDS011;46289;51.992;4.498;2023-03-14T14:15:18;12.20;;;2.42;;
60436;SDS011;46289;51.992;4.498;2023-03-14T14:17:28;10.35;;;2.80;;
60436;SDS011;46289;51.992;4.498;2023-03-14T14:19:41;12.43;;;2.25;;
60436;SDS011;46289;51.992;4.498;2023-03-14T14:21:52;9.30;;;1.88;;
60436;SDS011;46289;51.992;4.498;2023-03-14T14:23:58;13.32;;;2.95;;
60436;SDS011;46289;51.992;4.498;2023-03-14T14:26:13;12.27;;;2.58;;
60436;SDS011;46289;51.992;4.498;2023-03-14T14:28:23;12.77;;;2.75;;
60436;SDS011;46289;51.992;4.498;2023-03-14T14:30:37;12.13;;;2.42;;
60436;SDS011;46289;51.992;4.498;2023-03-14T14:32:49;15.05;;;2.97;;
60436;SDS011;46289;51.992;4.498;2023-03-14T14:35:22;4.18;;;1.77;;
60436;SDS011;46289;51.992;4.498;2023-03-14T14:37:28;14.80;;;3.33;;
60436;SDS011;46289;51.992;4.498;2023-03-14T14:39:34;10.27;;;2.42;;
60436;SDS011;46289;51.992;4.498;2023-03-14T14:41:40;15.73;;;2.58;;
60436;SDS011;46289;51.992;4.498;2023-03-14T14:43:47;9.32;;;3.30;;
60436;SDS011;46289;51.992;4.498;2023-03-14T14:46:01;11.27;;;2.30;;
60436;SDS011;46289;51.992;4.498;2023-03-14T14:48:12;11.57;;;2.33;;
60436;SDS011;46289;51.992;4.498;2023-03-14T14:50:25;13.52;;;2.85;;
60436;SDS011;46289;51.992;4.498;2023-03-14T14:52:37;6.13;;;2.10;;
60436;SDS011;46289;51.992;4.498;2023-03-14T14:54:47;8.48;;;2.08;;
60436;SDS011;46289;51.992;4.498;2023-03-14T14:57:02;8.05;;;2.70;;
60436;SDS011;46289;51.992;4.498;2023-03-14T14:59:18;14.00;;;3.08;;
60436;SDS011;46289;51.992;4.498;2023-03-14T15:01:34;13.15;;;2.88;;
60436;SDS011;46289;51.992;4.498;2023-03-14T15:03:44;11.77;;;2.42;;
60436;SDS011;46289;51.992;4.498;2023-03-14T15:05:54;8.40;;;2.08;;
60436;SDS011;46289;51.992;4.498;2023-03-14T15:08:02;9.38;;;1.90;;
60436;SDS011;46289;51.992;4.498;2023-03-14T15:10:12;6.85;;;1.67;;
60436;SDS011;46289;51.992;4.498;2023-03-14T15:12:20;9.32;;;1.83;;
60436;SDS011;46289;51.992;4.498;2023-03-14T15:14:26;12.63;;;2.75;;
60436;SDS011;46289;51.992;4.498;2023-03-14T15:16:33;14.00;;;2.67;;
60436;SDS011;46289;51.992;4.498;2023-03-14T15:18:45;8.60;;;1.90;;
60436;SDS011;46289;51.992;4.498;2023-03-14T15:20:54;11.25;;;2.25;;
60436;SDS011;46289;51.992;4.498;2023-03-14T15:23:01;5.50;;;1.73;;
60436;SDS011;46289;51.992;4.498;2023-03-14T15:25:07;7.28;;;1.58;;
60436;SDS011;46289;51.992;4.498;2023-03-14T15:27:34;6.45;;;1.75;;
60436;SDS011;46289;51.992;4.498;2023-03-14T15:29:43;10.15;;;1.70;;
60436;SDS011;46289;51.992;4.498;2023-03-14T15:31:51;11.75;;;2.22;;
60436;SDS011;46289;51.992;4.498;2023-03-14T15:33:56;6.00;;;1.75;;
60436;SDS011;46289;51.992;4.498;2023-03-14T15:36:00;5.75;;;1.92;;
60436;SDS011;46289;51.992;4.498;2023-03-14T15:38:09;13.23;;;2.55;;
60436;SDS011;46289;51.992;4.498;2023-03-14T15:40:17;10.52;;;2.05;;
60436;SDS011;46289;51.992;4.498;2023-03-14T15:42:22;7.18;;;2.05;;
60436;SDS011;46289;51.992;4.498;2023-03-14T15:44:27;9.20;;;2.00;;
60436;SDS011;46289;51.992;4.498;2023-03-14T15:46:34;6.72;;;1.80;;
60436;SDS011;46289;51.992;4.498;2023-03-14T15:48:42;6.90;;;1.70;;
60436;SDS011;46289;51.992;4.498;2023-03-14T15:50:50;3.97;;;1.50;;
60436;SDS011;46289;51.992;4.498;2023-03-14T15:53:03;9.23;;;2.10;;
60436;SDS011;46289;51.992;4.498;2023-03-14T15:55:11;7.55;;;2.25;;
60436;SDS011;46289;51.992;4.498;2023-03-14T15:57:17;4.90;;;1.70;;
60436;SDS011;46289;51.992;4.498;2023-03-14T15:59:22;6.15;;;1.90;;
60436;SDS011;46289;51.992;4.498;2023-03-14T16:01:27;9.85;;;2.83;;
60436;SDS011;46289;51.992;4.498;2023-03-14T16:03:35;12.05;;;2.53;;
60436;SDS011;46289;51.992;4.498;2023-03-14T16:05:45;7.43;;;2.10;;
60436;SDS011;46289;51.992;4.498;2023-03-14T16:07:50;6.70;;;2.28;;
60436;SDS011;46289;51.992;4.498;2023-03-14T16:09:57;10.63;;;1.83;;
60436;SDS011;46289;51.992;4.498;2023-03-14T16:12:02;6.82;;;1.60;;
60436;SDS011;46289;51.992;4.498;2023-03-14T16:14:08;8.98;;;1.85;;
60436;SDS011;46289;51.992;4.498;2023-03-14T16:16:13;6.80;;;1.67;;
60436;SDS011;46289;51.992;4.498;2023-03-14T16:18:21;6.15;;;3.50;;
60436;SDS011;46289;51.992;4.498;2023-03-14T16:20:26;7.85;;;1.58;;
60436;SDS011;46289;51.992;4.498;2023-03-14T16:22:48;9.15;;;1.90;;
60436;SDS011;46289;51.992;4.498;2023-03-14T16:24:53;7.65;;;1.80;;
60436;SDS011;46289;51.992;4.498;2023-03-14T16:26:58;10.57;;;1.73;;
60436;SDS011;46289;51.992;4.498;2023-03-14T16:29:02;7.28;;;2.33;;
60436;SDS011;46289;51.992;4.498;2023-03-14T16:31:08;14.73;;;2.45;;
60436;SDS011;46289;51.992;4.498;2023-03-14T16:33:14;4.05;;;1.33;;
60436;SDS011;46289;51.992;4.498;2023-03-14T16:35:22;8.20;;;1.70;;
60436;SDS011;46289;51.992;4.498;2023-03-14T16:37:26;9.70;;;2.45;;
60436;SDS011;46289;51.992;4.498;2023-03-14T16:39:34;10.25;;;2.67;;
60436;SDS011;46289;51.992;4.498;2023-03-14T16:41:59;6.18;;;1.83;;
60436;SDS011;46289;51.992;4.498;2023-03-14T16:44:04;4.20;;;1.65;;
60436;SDS011;46289;51.992;4.498;2023-03-14T16:46:10;7.88;;;1.80;;
60436;SDS011;46289;51.992;4.498;2023-03-14T16:48:17;5.57;;;2.40;;
60436;SDS011;46289;51.992;4.498;2023-03-14T16:50:22;5.70;;;2.00;;
60436;SDS011;46289;51.992;4.498;2023-03-14T16:52:27;9.40;;;2.47;;
60436;SDS011;46289;51.992;4.498;2023-03-14T16:54:35;4.78;;;2.20;;
60436;SDS011;46289;51.992;4.498;2023-03-14T16:56:45;8.63;;;1.58;;
60436;SDS011;46289;51.992;4.498;2023-03-14T16:58:50;10.85;;;2.42;;
60436;SDS011;46289;51.992;4.498;2023-03-14T17:00:55;7.15;;;2.25;;
60436;SDS011;46289;51.992;4.498;2023-03-14T17:03:11;6.22;;;1.95;;
60436;SDS011;46289;51.992;4.498;2023-03-14T17:05:16;8.02;;;1.90;;
60436;SDS011;46289;51.992;4.498;2023-03-14T17:07:22;3.40;;;1.70;;
60436;SDS011;46289;51.992;4.498;2023-03-14T17:09:27;11.98;;;2.65;;
60436;SDS011;46289;51.992;4.498;2023-03-14T17:11:36;9.73;;;2.60;;
60436;SDS011;46289;51.992;4.498;2023-03-14T17:13:42;4.70;;;1.70;;
60436;SDS011;46289;51.992;4.498;2023-03-14T17:15:51;4.95;;;1.48;;
60436;SDS011;46289;51.992;4.498;2023-03-14T17:17:57;4.65;;;1.70;;
60436;SDS011;46289;51.992;4.498;2023-03-14T17:20:04;10.95;;;2.42;;
60436;SDS011;46289;51.992;4.498;2023-03-14T17:22:10;5.25;;;1.70;;
60436;SDS011;46289;51.992;4.498;2023-03-14T17:24:26;6.93;;;2.08;;
60436;SDS011;46289;51.992;4.498;2023-03-14T17:26:31;8.90;;;2.03;;
60436;SDS011;46289;51.992;4.498;2023-03-14T17:28:40;6.20;;;2.30;;
60436;SDS011;46289;51.992;4.498;2023-03-14T17:30:45;7.93;;;1.65;;
60436;SDS011;46289;51.992;4.498;2023-03-14T17:32:50;8.93;;;2.00;;
60436;SDS011;46289;51.992;4.498;2023-03-14T17:34:57;6.05;;;2.33;;
60436;SDS011;46289;51.992;4.498;2023-03-14T17:37:02;9.48;;;2.05;;
60436;SDS011;46289;51.992;4.498;2023-03-14T17:39:10;8.63;;;2.17;;
60436;SDS011;46289;51.992;4.498;2023-03-14T17:41:19;8.70;;;2.38;;
60436;SDS011;46289;51.992;4.498;2023-03-14T17:43:24;6.88;;;2.38;;
60436;SDS011;46289;51.992;4.498;2023-03-14T17:45:34;9.38;;;2.63;;
60436;SDS011;46289;51.992;4.498;2023-03-14T17:47:41;4.53;;;1.98;;
60436;SDS011;46289;51.992;4.498;2023-03-14T17:49:46;6.60;;;1.70;;
60436;SDS011;46289;51.992;4.498;2023-03-14T17:51:50;8.40;;;2.05;;
60436;SDS011;46289;51.992;4.498;2023-03-14T17:53:55;6.95;;;2.65;;
60436;SDS011;46289;51.992;4.498;2023-03-14T17:56:03;9.48;;;2.97;;
60436;SDS011;46289;51.992;4.498;2023-03-14T17:58:09;9.57;;;2.60;;
60436;SDS011;46289;51.992;4.498;2023-03-14T18:00:14;6.85;;;2.60;;
60436;SDS011;46289;51.992;4.498;2023-03-14T18:02:23;10.30;;;2.55;;
60436;SDS011;46289;51.992;4.498;2023-03-14T18:04:29;6.18;;;2.22;;
60436;SDS011;46289;51.992;4.498;2023-03-14T18:06:38;5.22;;;2.00;;
60436;SDS011;46289;51.992;4.498;2023-03-14T18:08:46;6.13;;;2.13;;
60436;SDS011;46289;51.992;4.498;2023-03-14T18:10:52;7.07;;;2.47;;